Flight Track Log - Related Links

Times and Time Zones

All times are in EDT time to prevent confusion due to time zone crossing. See the CRK127 flight status page for this flight to view local times or setup timezone preferences in your user account.

Time Position Orientation Groundspeed Altitude Reporting Facility
EDT Latitude Longitude Course Direction KTS MPH feet Rate Location/Type
Sat 04:28:39 AM 22.2291 114.4379 318° Northwest 268 308 8,700  Level FlightAware ADS-B
Sat 04:28:45 AM 22.2341 114.4334 326° Northwest 267 307 8,600 -1,143 Descending FlightAware ADS-B
Sat 04:29:00 AM 22.2524 114.4207 328° Northwest 266 306 8,300 -1,000 Descending FlightAware ADS-B
Sat 04:29:15 AM 22.2672 114.4105 328° Northwest 263 303 8,100 -828 Descending FlightAware ADS-B
Sat 04:29:29 AM 22.2814 114.4006 328° Northwest 257 296 7,900 -414 Descending FlightAware ADS-B
Sat 04:29:44 AM 22.2987 114.3906 331° Northwest 253 291 7,900 -200 Level FlightAware ADS-B
Sat 04:29:59 AM 22.3136 114.3838 338° Northwest 238 274 7,800 -480 Descending FlightAware ADS-B
Sat 04:30:09 AM 22.3234 114.3799 344° North 233 268 7,700 -1,000 Descending FlightAware ADS-B
Sat 04:30:29 AM 22.3416 114.3774 357° North 225 259 7,300 -1,333 Descending FlightAware ADS-B
Sat 04:30:54 AM 22.3697 114.3756 357° North 220 253 6,700 -1,077 Descending FlightAware ADS-B
Sat 04:31:08 AM 22.3826 114.3747 357° North 216 249 6,600 -500 Descending FlightAware ADS-B
Sat 04:31:18 AM 22.3935 114.3741 357° North 207 238 6,500 -800 Descending FlightAware ADS-B
Sat 04:31:38 AM 22.4124 114.3684 324° Northwest 201 231 6,200 -750 Descending FlightAware ADS-B
Sat 04:31:58 AM 22.4205 114.3523 279° West 196 226 6,000 -750 Descending FlightAware ADS-B
Sat 04:32:18 AM 22.4210 114.3318 269° West 195 224 5,700 -750 Descending FlightAware ADS-B
Sat 04:32:38 AM 22.4203 114.3131 267° West 196 226 5,500 -585 Descending FlightAware ADS-B
Sat 04:32:59 AM 22.4193 114.2940 267° West 197 227 5,300 -439 Descending FlightAware ADS-B
Sat 04:33:19 AM 22.4182 114.2728 267° West 198 228 5,200 -300 Descending FlightAware ADS-B
Sat 04:33:39 AM 22.4170 114.2529 267° West 197 227 5,100 -474 Descending FlightAware ADS-B
Sat 04:33:57 AM 22.4159 114.2360 266° West 195 224 4,900 -632 Descending FlightAware ADS-B
Sat 04:34:17 AM 22.4127 114.2152 252° West 196 226 4,700 -450 Descending FlightAware ADS-B
Sat 04:34:37 AM 22.4069 114.1973 251° West 196 226 4,600 -429 Descending FlightAware ADS-B
Sat 04:34:59 AM 22.4003 114.1767 251° West 194 223 4,400 -689 Descending FlightAware ADS-B
Sat 04:35:38 AM 22.3890 114.1407 251° West 194 223 3,900 -769 Descending FlightAware ADS-B
Sat 04:38:00 AM 22.3089 113.9146 249° West  Level Estimated
Sat 04:39:00 AM 22.3089 113.9146 North  Level Estimated
Sat 04:40:00 AM 22.3089 113.9146 North  Level Estimated
Sat 04:41:00 AM 22.3089 113.9146 North  Level Estimated
Sat 04:42:00 AM 22.3089 113.9146 North  Level Estimated
Sat 04:43:00 AM 22.3089 113.9146 North  Level Estimated
Sat 04:44:00 AM 22.3089 113.9146 North  Level Estimated
Sat 04:45:00 AM 22.3089 113.9146 North  Level Estimated
Sat 04:46:00 AM 22.3089 113.9146 North  Level Estimated
Sat 04:47:00 AM 22.3089 113.9146 North  Level Estimated
Sat 04:48:00 AM 22.3089 113.9146 North  Level Estimated
Sat 04:49:00 AM 22.3089 113.9146 North  Level Estimated
Sat 04:50:00 AM 22.3089 113.9146 North  Level Estimated
Sat 04:51:00 AM 22.3089 113.9146 North  Level Estimated

Login

Don't have an account? Register now (free) for customized features, flight alerts, and more!